createdAt,value
2022-12-01T00:01:14.647Z,54.20
2022-12-01T00:03:42.924Z,47.80
2022-12-01T00:06:12.698Z,63.80
2022-12-01T00:08:40.737Z,18.60
2022-12-01T00:11:08.572Z,61.60
2022-12-01T00:13:37.389Z,55.40
2022-12-01T00:16:13.877Z,59.60
2022-12-01T00:18:42.039Z,37.20
2022-12-01T00:21:15.243Z,53.40
2022-12-01T00:23:44.221Z,36.40
2022-12-01T00:26:12.409Z,41.20
2022-12-01T00:28:40.859Z,55.40
2022-12-01T00:31:09.278Z,54.60
2022-12-01T00:33:39.119Z,55.20
2022-12-01T00:36:07.652Z,51.20
2022-12-01T00:38:36.144Z,56.40
2022-12-01T00:41:04.540Z,58.80
2022-12-01T00:43:32.849Z,56.20
2022-12-01T00:46:01.140Z,36.00
2022-12-01T00:48:29.402Z,42.40
2022-12-01T00:50:59.257Z,63.20
2022-12-01T00:53:27.353Z,45.40
2022-12-01T00:55:55.473Z,52.00
2022-12-01T00:58:23.970Z,36.80
2022-12-01T01:00:58.721Z,48.80
2022-12-01T01:03:26.822Z,41.60
2022-12-01T01:05:54.996Z,33.80
2022-12-01T01:08:24.569Z,39.20
2022-12-01T01:10:52.737Z,42.40
2022-12-01T01:13:20.901Z,41.00
2022-12-01T01:15:57.964Z,39.40
2022-12-01T01:18:27.125Z,54.60
2022-12-01T01:20:58.832Z,35.00
2022-12-01T01:23:28.451Z,52.80
2022-12-01T01:26:02.059Z,57.40
2022-12-01T01:28:30.738Z,58.60
2022-12-01T01:30:59.241Z,56.40
2022-12-01T01:33:27.397Z,47.60
2022-12-01T01:35:55.512Z,39.00
2022-12-01T01:38:23.609Z,46.00
2022-12-01T01:40:53.077Z,43.60
2022-12-01T01:43:35.969Z,39.80
2022-12-01T01:46:04.228Z,50.80
2022-12-01T01:48:32.470Z,31.60
2022-12-01T01:51:00.693Z,40.40
2022-12-01T01:53:28.818Z,46.40
2022-12-01T01:55:58.740Z,39.80
2022-12-01T01:58:27.552Z,42.60
2022-12-01T02:00:55.665Z,36.80
2022-12-01T02:03:23.881Z,49.00
2022-12-01T02:05:52.156Z,48.20
2022-12-01T02:08:20.252Z,50.60
2022-12-01T02:10:54.441Z,43.60
2022-12-01T02:13:28.855Z,33.80
2022-12-01T02:16:00.493Z,38.20
2022-12-01T02:18:33.581Z,48.20
2022-12-01T02:21:22.414Z,39.40
2022-12-01T02:24:20.253Z,30.80
2022-12-01T02:26:52.180Z,37.00
2022-12-01T02:29:39.918Z,35.80
2022-12-01T02:32:14.219Z,46.00
2022-12-01T02:34:45.754Z,43.40
2022-12-01T02:37:19.178Z,38.00
2022-12-01T02:39:54.156Z,39.20
2022-12-01T02:42:40.070Z,40.40
2022-12-01T02:45:11.692Z,34.40
2022-12-01T02:47:42.264Z,23.60
2022-12-01T02:50:12.003Z,23.80
2022-12-01T02:52:41.537Z,54.80
2022-12-01T02:55:10.100Z,48.00
2022-12-01T02:57:38.148Z,30.20
2022-12-01T03:00:07.158Z,53.40
2022-12-01T03:02:42.487Z,49.60
2022-12-01T03:05:20.120Z,45.20
2022-12-01T03:07:55.691Z,37.60
2022-12-01T03:10:27.023Z,31.40
2022-12-01T03:13:02.852Z,39.00
2022-12-01T03:15:35.871Z,50.20
2022-12-01T03:18:08.268Z,31.40
2022-12-01T03:20:39.605Z,29.00
2022-12-01T03:23:10.506Z,25.60
2022-12-01T03:25:39.168Z,42.60
2022-12-01T03:28:24.863Z,41.40
2022-12-01T03:30:56.067Z,29.00
2022-12-01T03:33:26.618Z,40.80
2022-12-01T03:35:58.950Z,42.40
2022-12-01T03:38:28.300Z,32.60
2022-12-01T03:40:58.426Z,36.60
2022-12-01T03:43:29.343Z,32.40
2022-12-01T03:46:00.618Z,30.00
2022-12-01T03:48:29.166Z,40.20
2022-12-01T03:51:04.446Z,43.40
2022-12-01T03:53:35.489Z,39.20
2022-12-01T03:56:04.746Z,28.20
2022-12-01T03:58:35.167Z,35.40
2022-12-01T04:01:03.622Z,27.00
2022-12-01T04:03:31.759Z,40.60
2022-12-01T04:06:02.341Z,38.00
2022-12-01T04:08:30.870Z,44.40
2022-12-01T04:10:59.564Z,23.80
2022-12-01T04:13:26.928Z,33.40
2022-12-01T04:15:56.050Z,35.00
2022-12-01T04:18:24.112Z,31.80
2022-12-01T04:20:52.338Z,35.20
2022-12-01T04:23:35.656Z,33.40
2022-12-01T04:26:05.153Z,21.20
2022-12-01T04:28:33.291Z,40.60
2022-12-01T04:31:01.468Z,41.20
2022-12-01T04:33:30.620Z,39.80
2022-12-01T04:35:59.162Z,34.60
2022-12-01T04:38:30.765Z,27.60
2022-12-01T04:40:59.215Z,36.00
2022-12-01T04:43:27.328Z,31.80
2022-12-01T04:45:55.550Z,33.20
2022-12-01T04:48:23.758Z,37.80
2022-12-01T04:50:51.903Z,43.60
2022-12-01T04:53:19.934Z,32.40
2022-12-01T04:55:49.470Z,42.20
2022-12-01T04:58:17.528Z,44.40
2022-12-01T05:00:45.671Z,40.20
2022-12-01T05:03:15.321Z,16.60
2022-12-01T05:05:43.898Z,28.20
2022-12-01T05:08:12.251Z,34.40
2022-12-01T05:10:40.339Z,33.00
2022-12-01T05:13:10.204Z,33.40
2022-12-01T05:15:38.270Z,40.40
2022-12-01T05:18:07.285Z,32.00
2022-12-01T05:20:52.778Z,28.60
2022-12-01T05:23:20.854Z,44.40
2022-12-01T05:25:48.904Z,36.80
2022-12-01T05:28:18.413Z,40.80
2022-12-01T05:30:46.572Z,43.60
2022-12-01T05:33:14.716Z,41.60
2022-12-01T05:35:42.803Z,19.40
2022-12-01T05:38:11.328Z,25.60
2022-12-01T05:40:39.547Z,28.80
2022-12-01T05:43:08.511Z,44.60
2022-12-01T05:45:38.053Z,30.80
2022-12-01T05:48:06.332Z,32.80
2022-12-01T05:50:34.485Z,41.40
2022-12-01T05:53:02.493Z,33.00
2022-12-01T05:55:30.571Z,31.00
2022-12-01T05:57:58.763Z,39.20
2022-12-01T06:00:27.050Z,43.60
2022-12-01T06:02:56.664Z,30.20
2022-12-01T06:05:24.730Z,41.20
2022-12-01T06:07:52.949Z,39.20
2022-12-01T06:10:21.061Z,38.00
2022-12-01T06:12:49.121Z,28.20
2022-12-01T06:15:17.205Z,26.40
2022-12-01T06:17:45.300Z,24.20
2022-12-01T06:20:15.007Z,22.80
2022-12-01T06:22:43.118Z,43.00
2022-12-01T06:25:11.600Z,49.60
2022-12-01T06:27:39.658Z,48.20
2022-12-01T06:30:08.539Z,43.40
2022-12-01T06:32:36.831Z,35.20
2022-12-01T06:35:05.420Z,39.60
2022-12-01T06:37:34.885Z,48.60
2022-12-01T06:40:03.020Z,32.60
2022-12-01T06:42:32.510Z,26.60
2022-12-01T06:45:00.712Z,40.60
2022-12-01T06:47:28.833Z,52.20
2022-12-01T06:49:56.911Z,53.40
2022-12-01T06:52:25.006Z,52.40
2022-12-01T06:54:54.548Z,59.80
2022-12-01T06:57:22.837Z,66.40
2022-12-01T06:59:51.584Z,64.40
2022-12-01T07:02:20.441Z,65.60
2022-12-01T07:04:48.523Z,72.20
2022-12-01T07:07:16.554Z,59.60
2022-12-01T07:09:44.576Z,59.80
2022-12-01T07:12:14.155Z,43.80
2022-12-01T07:14:42.612Z,69.00
2022-12-01T07:17:10.849Z,64.40
2022-12-01T07:19:39.142Z,58.20
2022-12-01T07:22:07.216Z,70.00
2022-12-01T07:24:36.322Z,69.20
2022-12-01T07:27:04.422Z,53.80
2022-12-01T07:29:33.864Z,48.20
2022-12-01T07:32:01.931Z,63.80
2022-12-01T07:34:30.031Z,59.20
2022-12-01T07:36:58.560Z,69.00
2022-12-01T07:39:26.603Z,69.80
2022-12-01T07:41:54.616Z,52.80
2022-12-01T07:44:22.702Z,35.20
2022-12-01T07:46:52.220Z,53.80
2022-12-01T07:49:20.278Z,65.00
2022-12-01T07:51:48.369Z,37.00
2022-12-01T07:54:17.744Z,57.80
2022-12-01T07:56:45.844Z,53.80
2022-12-01T07:59:16.055Z,64.60
2022-12-01T08:01:45.070Z,54.40
2022-12-01T08:04:14.717Z,66.80
2022-12-01T08:06:42.808Z,67.00
2022-12-01T08:09:11.025Z,50.80
2022-12-01T08:11:39.090Z,46.80
2022-12-01T08:14:07.223Z,47.40
2022-12-01T08:16:35.605Z,55.00
2022-12-01T08:19:03.760Z,54.60
2022-12-01T08:21:33.476Z,46.40
2022-12-01T08:24:01.609Z,57.40
2022-12-01T08:26:29.723Z,54.00
2022-12-01T08:28:59.644Z,52.00
2022-12-01T08:31:28.911Z,57.60
2022-12-01T08:33:57.250Z,54.80
2022-12-01T08:36:25.836Z,55.80
2022-12-01T08:38:56.078Z,57.60
2022-12-01T08:41:24.875Z,53.80
2022-12-01T08:44:00.993Z,53.60
2022-12-01T08:46:33.678Z,64.00
2022-12-01T08:49:01.921Z,47.60
2022-12-01T08:51:29.988Z,58.00
2022-12-01T08:53:59.883Z,59.20
2022-12-01T08:56:28.972Z,59.20
2022-12-01T08:58:57.161Z,44.00
2022-12-01T09:01:26.514Z,66.80
2022-12-01T09:04:06.016Z,59.80
2022-12-01T09:06:36.009Z,53.80
2022-12-01T09:09:05.968Z,52.00
2022-12-01T09:11:34.025Z,64.80
2022-12-01T09:14:02.068Z,70.80
2022-12-01T09:16:30.434Z,64.20
2022-12-01T09:18:58.900Z,76.00
2022-12-01T09:21:27.803Z,57.40
2022-12-01T09:23:55.862Z,74.40
2022-12-01T09:26:25.690Z,79.80
2022-12-01T09:28:54.584Z,79.80
2022-12-01T09:31:23.638Z,78.40
2022-12-01T09:33:55.597Z,80.60
2022-12-01T09:36:23.708Z,74.20
2022-12-01T09:38:51.771Z,78.60
2022-12-01T09:41:20.954Z,80.00
2022-12-01T09:43:53.491Z,73.60
2022-12-01T09:46:23.629Z,77.20
2022-12-01T09:48:53.234Z,72.80
2022-12-01T09:51:22.273Z,63.20
2022-12-01T09:53:51.666Z,55.20
2022-12-01T09:56:21.620Z,68.60
2022-12-01T09:58:52.839Z,63.20
2022-12-01T10:01:26.984Z,68.20
2022-12-01T10:03:58.776Z,67.80
2022-12-01T10:06:31.069Z,70.80
2022-12-01T10:09:03.756Z,65.40
2022-12-01T10:11:33.191Z,77.40
2022-12-01T10:14:03.053Z,78.00
2022-12-01T10:16:34.725Z,78.60
2022-12-01T10:19:06.041Z,77.00
2022-12-01T10:21:41.957Z,73.00
2022-12-01T10:24:23.729Z,41.40
2022-12-01T10:26:53.420Z,68.00
2022-12-01T10:29:28.592Z,75.40
2022-12-01T10:31:58.236Z,52.20
2022-12-01T10:34:27.763Z,66.60
2022-12-01T10:36:56.119Z,60.40
2022-12-01T10:39:27.685Z,55.00
2022-12-01T10:41:59.036Z,53.80
2022-12-01T10:44:29.704Z,38.00
2022-12-01T10:46:57.931Z,39.80
2022-12-01T10:49:36.812Z,48.80
2022-12-01T10:52:05.205Z,39.40
2022-12-01T10:54:34.257Z,53.20
2022-12-01T10:57:02.873Z,43.20
2022-12-01T10:59:34.266Z,59.00
2022-12-01T11:02:03.279Z,51.60
2022-12-01T11:04:36.590Z,52.60
2022-12-01T11:07:05.371Z,65.00
2022-12-01T11:09:33.833Z,64.60
2022-12-01T11:12:03.295Z,58.60
2022-12-01T11:14:38.457Z,64.00
2022-12-01T11:17:16.535Z,48.60
2022-12-01T11:19:44.713Z,65.20
2022-12-01T11:22:21.103Z,63.00
2022-12-01T11:24:58.203Z,51.80
2022-12-01T11:27:27.683Z,67.20
2022-12-01T11:29:58.714Z,68.60
2022-12-01T11:32:28.192Z,60.60
2022-12-01T11:34:58.211Z,59.60
2022-12-01T11:37:28.925Z,62.40
2022-12-01T11:40:05.354Z,54.60
2022-12-01T11:42:34.492Z,56.40
2022-12-01T11:45:05.933Z,72.00
2022-12-01T11:47:34.036Z,70.20
2022-12-01T11:50:03.556Z,68.60
2022-12-01T11:52:32.458Z,68.60
2022-12-01T11:55:06.902Z,53.80
2022-12-01T11:57:38.128Z,43.60
2022-12-01T12:00:13.827Z,70.40
2022-12-01T12:02:45.758Z,62.80
2022-12-01T12:05:31.464Z,70.20
2022-12-01T12:08:05.077Z,56.60
2022-12-01T12:10:39.284Z,68.80
2022-12-01T12:13:17.582Z,64.80
2022-12-01T12:15:51.910Z,73.00
2022-12-01T12:18:31.034Z,62.00
2022-12-01T12:21:06.793Z,53.60
2022-12-01T12:23:49.422Z,69.60
2022-12-01T12:26:21.082Z,57.00
2022-12-01T12:29:00.557Z,70.80
2022-12-01T12:31:35.830Z,64.80
2022-12-01T12:34:23.790Z,62.20
2022-12-01T12:36:58.137Z,60.20
2022-12-01T12:39:37.136Z,69.40
2022-12-01T12:42:08.375Z,66.60
2022-12-01T12:44:45.692Z,59.40
2022-12-01T12:47:21.116Z,60.40
2022-12-01T12:49:52.742Z,62.60
2022-12-01T12:52:24.208Z,55.20
2022-12-01T12:54:54.719Z,55.60
2022-12-01T12:57:28.429Z,66.80
2022-12-01T12:59:59.478Z,52.20
2022-12-01T13:02:34.008Z,50.20
2022-12-01T13:05:06.158Z,51.20
2022-12-01T13:07:39.186Z,58.60
2022-12-01T13:10:11.316Z,58.60
2022-12-01T13:12:42.897Z,55.20
2022-12-01T13:15:16.110Z,38.00
2022-12-01T13:17:47.705Z,55.40
2022-12-01T13:20:17.666Z,52.20
2022-12-01T13:22:46.936Z,57.40
2022-12-01T13:25:16.303Z,38.00
2022-12-01T13:27:45.526Z,63.40
2022-12-01T13:30:21.321Z,53.80
2022-12-01T13:32:51.209Z,47.00
2022-12-01T13:35:26.525Z,53.80
2022-12-01T13:37:55.174Z,54.60
2022-12-01T13:40:24.118Z,56.60
2022-12-01T13:42:58.932Z,60.40
2022-12-01T13:45:30.820Z,33.80
2022-12-01T13:48:01.115Z,47.80
2022-12-01T13:50:40.361Z,49.20
2022-12-01T13:53:12.585Z,55.40
2022-12-01T13:55:55.640Z,53.20
2022-12-01T13:58:25.378Z,58.40
2022-12-01T14:00:53.612Z,43.20
2022-12-01T14:03:48.876Z,51.40
2022-12-01T14:06:29.173Z,53.80
2022-12-01T14:09:00.326Z,37.80
2022-12-01T14:11:29.818Z,53.60
2022-12-01T14:14:01.651Z,57.60
2022-12-01T14:16:45.033Z,17.00
2022-12-01T14:19:27.028Z,48.60
2022-12-01T14:21:57.714Z,69.20
2022-12-01T14:24:27.921Z,45.80
2022-12-01T14:26:56.180Z,48.80
2022-12-01T14:29:31.844Z,45.80
2022-12-01T14:32:26.933Z,44.40
2022-12-01T14:35:06.408Z,51.60
2022-12-01T14:37:37.882Z,47.40
2022-12-01T14:40:08.363Z,59.00
2022-12-01T14:42:55.103Z,53.40
2022-12-01T14:45:28.224Z,61.80
2022-12-01T14:48:01.146Z,51.00
2022-12-01T14:50:42.120Z,61.20
2022-12-01T14:53:20.760Z,59.60
2022-12-01T14:55:52.196Z,59.60
2022-12-01T14:58:22.743Z,50.40
2022-12-01T15:00:57.171Z,58.20
2022-12-01T15:03:31.767Z,57.80
2022-12-01T15:06:00.590Z,59.20
2022-12-01T15:09:03.974Z,54.40
2022-12-01T15:11:23.665Z,51.80
2022-12-01T15:13:52.816Z,63.00
2022-12-01T15:16:21.761Z,54.80
2022-12-01T15:18:50.879Z,51.40
2022-12-01T15:21:20.931Z,60.40
2022-12-01T15:24:00.700Z,60.80
2022-12-01T15:26:30.518Z,50.80
2022-12-01T15:29:15.679Z,70.00
2022-12-01T15:31:45.047Z,67.80
2022-12-01T15:34:15.782Z,46.80
2022-12-01T15:36:44.558Z,58.40
2022-12-01T15:39:15.417Z,66.00
2022-12-01T15:41:44.583Z,58.80
2022-12-01T15:44:19.845Z,63.60
2022-12-01T15:46:48.068Z,54.60
2022-12-01T15:49:18.463Z,50.60
2022-12-01T15:51:47.158Z,27.60
2022-12-01T15:54:21.858Z,42.60
2022-12-01T15:56:52.904Z,46.80
2022-12-01T15:59:27.118Z,38.20
2022-12-01T16:01:56.899Z,41.40
2022-12-01T16:04:26.221Z,34.60
2022-12-01T16:06:57.112Z,47.80
2022-12-01T16:09:28.527Z,60.20
2022-12-01T16:12:15.174Z,57.60
2022-12-01T16:14:50.222Z,61.40
2022-12-01T16:17:18.574Z,45.60
2022-12-01T16:19:46.960Z,46.00
2022-12-01T16:22:17.964Z,55.00
2022-12-01T16:24:49.514Z,56.60
2022-12-01T16:27:22.470Z,57.60
2022-12-01T16:29:52.437Z,54.60
2022-12-01T16:32:22.698Z,45.60
2022-12-01T16:34:53.145Z,45.00
2022-12-01T16:37:23.027Z,47.20
2022-12-01T16:39:53.162Z,24.80
2022-12-01T16:42:22.710Z,44.00
2022-12-01T16:44:51.966Z,52.20
2022-12-01T16:47:21.887Z,41.80
2022-12-01T16:49:50.678Z,44.00
2022-12-01T16:55:23.837Z,40.60
2022-12-01T16:57:58.448Z,55.40
2022-12-01T17:00:27.665Z,56.60
2022-12-01T17:02:56.551Z,51.20
2022-12-01T17:05:25.334Z,55.20
2022-12-01T17:07:54.258Z,39.60
2022-12-01T17:10:24.490Z,35.20
2022-12-01T17:12:56.060Z,47.00
2022-12-01T17:15:24.600Z,60.60
2022-12-01T17:17:53.778Z,42.20
2022-12-01T17:20:22.184Z,60.80
2022-12-01T17:22:50.497Z,56.60
2022-12-01T17:25:18.832Z,62.40
2022-12-01T17:27:48.642Z,62.80
2022-12-01T17:30:17.478Z,56.20
2022-12-01T17:32:46.742Z,49.00
2022-12-01T17:35:15.211Z,50.40
2022-12-01T17:37:43.580Z,47.80
2022-12-01T17:40:15.236Z,64.80
2022-12-01T17:42:48.760Z,55.60
2022-12-01T17:45:20.631Z,55.40
2022-12-01T17:47:48.749Z,64.40
2022-12-01T17:50:17.327Z,56.80
2022-12-01T17:52:45.458Z,56.80
2022-12-01T17:55:14.221Z,62.20
2022-12-01T17:57:43.089Z,55.80
2022-12-01T18:00:12.086Z,52.20
2022-12-01T18:02:41.687Z,58.20
2022-12-01T18:05:10.262Z,58.00
2022-12-01T18:07:38.888Z,62.60
2022-12-01T18:10:07.806Z,53.00
2022-12-01T18:12:36.197Z,51.80
2022-12-01T18:15:05.634Z,69.60
2022-12-01T18:17:33.917Z,63.60
2022-12-01T18:20:03.468Z,63.40
2022-12-01T18:22:31.722Z,59.20
2022-12-01T18:24:59.878Z,63.20
2022-12-01T18:27:27.998Z,57.20
2022-12-01T18:29:56.173Z,63.80
2022-12-01T18:32:24.280Z,64.40
2022-12-01T18:34:53.005Z,42.60
2022-12-01T18:37:22.753Z,62.60
2022-12-01T18:39:51.190Z,60.60
2022-12-01T18:42:19.380Z,52.00
2022-12-01T18:44:48.101Z,54.60
2022-12-01T18:47:16.594Z,67.60
2022-12-01T18:49:45.221Z,48.80
2022-12-01T18:52:13.697Z,54.80
2022-12-01T18:54:43.840Z,62.40
2022-12-01T18:57:12.109Z,53.60
2022-12-01T18:59:40.479Z,63.80
2022-12-01T19:02:09.452Z,43.80
2022-12-01T19:04:37.581Z,67.60
2022-12-01T19:07:05.940Z,43.80
2022-12-01T19:09:36.043Z,60.40
2022-12-01T19:12:05.677Z,66.80
2022-12-01T19:14:33.817Z,60.00
2022-12-01T19:17:02.351Z,61.00
2022-12-01T19:19:35.729Z,48.60
2022-12-01T19:22:05.935Z,54.80
2022-12-01T19:24:34.104Z,43.80
2022-12-01T19:27:02.210Z,32.40
2022-12-01T19:29:31.931Z,58.40
2022-12-01T19:32:00.574Z,57.80
2022-12-01T19:34:29.123Z,51.20
2022-12-01T19:36:57.970Z,52.20
2022-12-01T19:39:26.385Z,60.00
2022-12-01T19:41:57.427Z,52.00
2022-12-01T19:44:25.665Z,61.40
2022-12-01T19:46:55.233Z,68.40
2022-12-01T19:49:23.311Z,63.20
2022-12-01T19:51:51.457Z,71.40
2022-12-01T19:54:20.890Z,54.40
2022-12-01T19:56:49.116Z,50.60
2022-12-01T19:59:17.261Z,62.40
2022-12-01T20:01:45.400Z,41.20
2022-12-01T20:04:15.374Z,53.80
2022-12-01T20:06:43.461Z,50.80
2022-12-01T20:09:11.696Z,63.40
2022-12-01T20:11:39.781Z,62.20
2022-12-01T20:14:10.848Z,63.80
2022-12-01T20:16:40.200Z,67.00
2022-12-01T20:19:08.494Z,64.80
2022-12-01T20:21:42.542Z,66.00
2022-12-01T20:24:13.024Z,66.60
2022-12-01T20:26:42.118Z,68.00
2022-12-01T20:29:11.696Z,69.00
2022-12-01T20:31:40.589Z,73.80
2022-12-01T20:34:10.738Z,75.80
2022-12-01T20:36:40.672Z,70.40
2022-12-01T20:39:09.619Z,87.40
2022-12-01T20:41:37.787Z,81.00
2022-12-01T20:44:07.671Z,75.00
2022-12-01T20:46:36.161Z,62.75
2022-12-01T20:49:04.540Z,81.75
2022-12-01T20:51:33.543Z,77.60
2022-12-01T20:54:27.317Z,71.00
2022-12-01T20:56:51.286Z,87.25
2022-12-01T20:59:19.386Z,84.00
2022-12-01T21:01:47.446Z,86.00
2022-12-01T21:04:15.500Z,67.00
2022-12-01T21:06:43.762Z,91.00
2022-12-01T21:09:14.878Z,78.25
2022-12-01T21:12:13.613Z,74.00
2022-12-01T21:14:46.070Z,80.25
2022-12-01T21:17:20.634Z,77.00
2022-12-01T21:19:51.509Z,85.75
2022-12-01T21:22:20.279Z,70.00
2022-12-01T21:24:51.633Z,84.25
2022-12-01T21:27:19.909Z,84.00
2022-12-01T21:29:48.487Z,84.25
2022-12-01T21:32:17.600Z,85.50
2022-12-01T21:34:46.898Z,82.50
2022-12-01T21:37:23.007Z,76.60
2022-12-01T21:39:53.167Z,61.80
2022-12-01T21:42:22.435Z,74.00
2022-12-01T21:44:50.956Z,68.60
2022-12-01T21:47:21.049Z,75.60
2022-12-01T21:49:50.062Z,75.00
2022-12-01T21:52:19.832Z,67.20
2022-12-01T21:54:48.427Z,77.60
2022-12-01T21:57:39.784Z,73.60
2022-12-01T22:00:25.116Z,62.40
2022-12-01T22:02:54.464Z,75.20
2022-12-01T22:05:27.480Z,59.80
2022-12-01T22:08:00.226Z,59.60
2022-12-01T22:10:45.854Z,71.00
2022-12-01T22:13:15.304Z,60.40
2022-12-01T22:15:43.802Z,71.00
2022-12-01T22:18:16.738Z,71.80
2022-12-01T22:20:44.774Z,72.60
2022-12-01T22:23:13.781Z,53.00
2022-12-01T22:25:42.208Z,50.00
2022-12-01T22:28:14.623Z,48.40
2022-12-01T22:30:44.873Z,55.20
2022-12-01T22:33:15.998Z,72.20
2022-12-01T22:35:45.028Z,47.40
2022-12-01T22:38:43.244Z,64.60
2022-12-01T22:41:13.222Z,55.00
2022-12-01T22:43:45.789Z,76.40
2022-12-01T22:46:22.812Z,52.00
2022-12-01T22:48:51.896Z,58.40
2022-12-01T22:51:23.951Z,55.00
2022-12-01T22:53:54.485Z,57.80
2022-12-01T22:56:28.707Z,45.40
2022-12-01T22:58:57.413Z,25.60
2022-12-01T23:01:29.006Z,45.80
2022-12-01T23:04:15.039Z,64.80
2022-12-01T23:06:52.186Z,55.80
2022-12-01T23:09:20.593Z,44.00
2022-12-01T23:11:52.353Z,58.20
2022-12-01T23:14:21.397Z,55.60
2022-12-01T23:16:51.258Z,60.20
2022-12-01T23:19:19.312Z,59.20
2022-12-01T23:21:47.379Z,61.60
2022-12-01T23:24:18.917Z,52.20
2022-12-01T23:26:47.409Z,67.40
2022-12-01T23:29:15.473Z,53.40
2022-12-01T23:31:43.573Z,62.00
2022-12-01T23:34:14.896Z,67.40
2022-12-01T23:36:42.965Z,57.80
2022-12-01T23:39:12.325Z,53.20
2022-12-01T23:41:41.095Z,58.00
2022-12-01T23:44:13.338Z,56.40
2022-12-01T23:46:41.444Z,58.20
2022-12-01T23:49:12.552Z,58.80
2022-12-01T23:51:45.449Z,58.40
2022-12-01T23:54:15.550Z,52.80
2022-12-01T23:56:43.805Z,62.60
2022-12-01T23:59:13.472Z,58.60
